Airport View

Enter AWOS ICAO identifier for current METAR.

ex. KFNL

KCOS 212254Z 18010G21KT 10SM FEW080 25/M07 A2996 RMK AO2 SLP062 T02501072 $

21 Sep 2019 23:23

Frequency: 125.000

Phone: 719-637-9696

Other Area AWOS: KFCS - KFLY - KAFF - KMNH

TAF AMD KCOS 212037Z 2121/2218 17015G30KT P6SM SKC FM220300 01010KT P6SM SCT060 BKN120 FM220500 01015G30KT P6SM VCSH BKN050 BKN110 FM220900 VRB06KT P6SM FEW050 FM221700 17010KT P6SM FEW050